createdAt,value
2018-03-04T00:00:49.978Z,99487.05
2018-03-04T00:03:18.087Z,99491.03
2018-03-04T00:05:46.215Z,99492.05
2018-03-04T00:08:14.324Z,99485.23
2018-03-04T00:10:42.433Z,99486.35
2018-03-04T00:13:10.553Z,99480.52
2018-03-04T00:15:38.675Z,99488.10
2018-03-04T00:18:06.784Z,99482.48
2018-03-04T00:20:34.905Z,99487.68
2018-03-04T00:23:03.041Z,99486.04
2018-03-04T00:25:31.151Z,99492.29
2018-03-04T00:27:59.268Z,99487.91
2018-03-04T00:30:27.375Z,99487.70
2018-03-04T00:32:55.480Z,99488.41
2018-03-04T00:35:23.610Z,99483.93
2018-03-04T00:37:51.709Z,99482.58
2018-03-04T00:40:19.828Z,99487.80
2018-03-04T00:42:47.937Z,99479.84
2018-03-04T00:45:16.060Z,99489.03
2018-03-04T00:47:47.421Z,99488.81
2018-03-04T00:50:15.522Z,99486.58
2018-03-04T00:52:43.653Z,99490.67
2018-03-04T00:55:11.786Z,99487.69
2018-03-04T00:57:39.895Z,99485.23
2018-03-04T01:00:08.156Z,99488.00
2018-03-04T01:02:36.277Z,99485.45
2018-03-04T01:05:04.412Z,99488.52
2018-03-04T01:07:32.529Z,99487.59
2018-03-04T01:10:00.638Z,99483.09
2018-03-04T01:12:28.735Z,99481.47
2018-03-04T01:14:56.877Z,99477.27
2018-03-04T01:17:24.983Z,99477.36
2018-03-04T01:19:53.118Z,99476.36
2018-03-04T01:22:21.237Z,99477.26
2018-03-04T01:24:49.358Z,99483.31
2018-03-04T01:27:17.460Z,99473.08
2018-03-04T01:29:45.584Z,99484.92
2018-03-04T01:32:13.692Z,99481.27
2018-03-04T01:34:44.721Z,99480.66
2018-03-04T01:37:12.856Z,99481.67
2018-03-04T01:39:40.956Z,99473.70
2018-03-04T01:42:09.087Z,99471.14
2018-03-04T01:44:37.210Z,99467.26
2018-03-04T01:47:05.304Z,99468.70
2018-03-04T01:49:33.445Z,99469.11
2018-03-04T01:52:01.569Z,99460.22
2018-03-04T01:54:29.687Z,99454.50
2018-03-04T01:56:57.795Z,99455.72
2018-03-04T01:59:25.918Z,99453.08
2018-03-04T02:01:54.039Z,99448.98
2018-03-04T02:04:22.173Z,99450.81
2018-03-04T02:06:50.285Z,99452.64
2018-03-04T02:09:18.421Z,99444.48
2018-03-04T02:11:46.570Z,99444.17
2018-03-04T02:14:14.742Z,99450.28
2018-03-04T02:16:42.843Z,99440.91
2018-03-04T02:19:10.965Z,99441.11
2018-03-04T02:21:39.098Z,99449.70
2018-03-04T02:24:07.192Z,99446.11
2018-03-04T02:26:35.328Z,99440.48
2018-03-04T02:29:03.455Z,99430.66
2018-03-04T02:31:31.565Z,99430.97
2018-03-04T02:33:59.697Z,99430.06
2018-03-04T02:36:27.822Z,99428.01
2018-03-04T02:38:55.918Z,99428.84
2018-03-04T02:41:24.036Z,99427.48
2018-03-04T02:43:52.594Z,99423.29
2018-03-04T02:46:20.735Z,99417.67
2018-03-04T02:48:48.842Z,99425.16
2018-03-04T02:51:16.956Z,99432.62
2018-03-04T02:53:45.066Z,99435.98
2018-03-04T02:56:13.207Z,99426.64
2018-03-04T02:58:41.315Z,99427.59
2018-03-04T03:01:09.435Z,99431.58
2018-03-04T03:03:37.553Z,99428.81
2018-03-04T03:06:05.663Z,99420.94
2018-03-04T03:08:33.771Z,99418.38
2018-03-04T03:11:01.886Z,99415.03
2018-03-04T03:13:30.014Z,99410.73
2018-03-04T03:15:58.114Z,99404.57
2018-03-04T03:18:26.228Z,99406.63
2018-03-04T03:20:54.678Z,99408.75
2018-03-04T03:23:22.791Z,99407.44
2018-03-04T03:25:50.900Z,99407.16
2018-03-04T03:28:19.023Z,99400.88
2018-03-04T03:30:47.156Z,99400.05
2018-03-04T03:33:15.272Z,99393.92
2018-03-04T03:35:45.293Z,99399.92
2018-03-04T03:38:13.402Z,99391.14
2018-03-04T03:40:41.519Z,99392.55
2018-03-04T03:43:09.636Z,99378.99
2018-03-04T03:45:37.740Z,99377.65
2018-03-04T03:48:05.851Z,99385.73
2018-03-04T03:50:33.999Z,99382.33
2018-03-04T03:53:02.100Z,99384.28
2018-03-04T03:55:30.225Z,99378.94
2018-03-04T03:57:58.357Z,99375.58
2018-03-04T04:00:26.466Z,99376.20
2018-03-04T04:02:54.581Z,99380.38
2018-03-04T04:05:22.694Z,99375.58
2018-03-04T04:07:50.798Z,99377.13
2018-03-04T04:10:18.931Z,99374.66
2018-03-04T04:12:47.096Z,99370.55
2018-03-04T04:15:15.202Z,99370.12
2018-03-04T04:17:43.345Z,99375.44
2018-03-04T04:20:11.461Z,99367.11
2018-03-04T04:22:42.648Z,99361.79
2018-03-04T04:25:10.885Z,99357.09
2018-03-04T04:27:39.001Z,99359.66
2018-03-04T04:30:07.118Z,99366.78
2018-03-04T04:32:35.229Z,99362.39
2018-03-04T04:35:06.275Z,99360.16
2018-03-04T04:37:34.403Z,99356.56
2018-03-04T04:40:02.513Z,99359.71
2018-03-04T04:42:30.644Z,99363.73
2018-03-04T04:44:58.801Z,99366.50
2018-03-04T04:47:26.913Z,99364.94
2018-03-04T04:49:55.087Z,99365.14
2018-03-04T04:52:23.188Z,99363.84
2018-03-04T04:54:51.314Z,99366.30
2018-03-04T04:57:19.434Z,99366.88
2018-03-04T04:59:47.539Z,99364.61
2018-03-04T05:02:15.671Z,99370.23
2018-03-04T05:04:43.808Z,99365.52
2018-03-04T05:07:11.932Z,99367.29
2018-03-04T05:09:40.051Z,99367.78
2018-03-04T05:12:08.167Z,99367.47
2018-03-04T05:14:36.290Z,99372.84
2018-03-04T05:17:04.404Z,99374.98
2018-03-04T05:19:32.722Z,99373.09
2018-03-04T05:22:00.855Z,99372.98
2018-03-04T05:24:28.955Z,99372.08
2018-03-04T05:26:57.070Z,99373.31
2018-03-04T05:29:25.220Z,99366.08
2018-03-04T05:31:53.290Z,99365.88
2018-03-04T05:34:21.414Z,99363.23
2018-03-04T05:36:49.528Z,99371.13
2018-03-04T05:39:17.725Z,99362.72
2018-03-04T05:41:45.826Z,99362.48
2018-03-04T05:44:13.945Z,99358.45
2018-03-04T05:46:42.067Z,99358.86
2018-03-04T05:49:10.176Z,99352.66
2018-03-04T05:51:38.309Z,99359.63
2018-03-04T05:54:06.428Z,99364.01
2018-03-04T05:56:34.555Z,99363.68
2018-03-04T05:59:02.730Z,99367.87
2018-03-04T06:01:30.871Z,99368.28
2018-03-04T06:03:58.976Z,99363.05
2018-03-04T06:06:27.087Z,99368.56
2018-03-04T06:08:56.164Z,99367.87
2018-03-04T06:11:24.277Z,99366.73
2018-03-04T06:13:52.398Z,99373.50
2018-03-04T06:16:20.519Z,99374.83
2018-03-04T06:18:48.619Z,99384.03
2018-03-04T06:21:16.746Z,99383.09
2018-03-04T06:23:44.881Z,99378.59
2018-03-04T06:26:12.991Z,99389.77
2018-03-04T06:28:41.096Z,99379.93
2018-03-04T06:31:09.206Z,99387.69
2018-03-04T06:33:37.318Z,99379.02
2018-03-04T06:36:05.419Z,99378.38
2018-03-04T06:38:33.551Z,99375.28
2018-03-04T06:41:01.681Z,99377.95
2018-03-04T06:43:29.802Z,99378.64
2018-03-04T06:45:57.927Z,99378.30
2018-03-04T06:48:26.046Z,99382.94
2018-03-04T06:50:54.468Z,99388.85
2018-03-04T06:53:22.584Z,99389.98
2018-03-04T06:55:50.691Z,99391.52
2018-03-04T06:58:18.826Z,99386.92
2018-03-04T07:00:46.977Z,99381.09
2018-03-04T07:03:15.073Z,99393.95
2018-03-04T07:05:43.179Z,99390.66
2018-03-04T07:08:11.300Z,99388.00
2018-03-04T07:10:39.422Z,99390.48
2018-03-04T07:13:07.538Z,99386.50
2018-03-04T07:15:35.662Z,99386.61
2018-03-04T07:18:03.770Z,99385.47
2018-03-04T07:20:31.874Z,99390.08
2018-03-04T07:23:00.024Z,99391.76
2018-03-04T07:25:28.334Z,99395.44
2018-03-04T07:27:56.447Z,99387.00
2018-03-04T07:30:24.567Z,99387.80
2018-03-04T07:32:52.685Z,99393.01
2018-03-04T07:35:20.795Z,99394.91
2018-03-04T07:37:48.908Z,99390.92
2018-03-04T07:40:17.028Z,99397.40
2018-03-04T07:42:45.866Z,99400.74
2018-03-04T07:45:14.042Z,99394.94
2018-03-04T07:47:42.156Z,99398.43
2018-03-04T07:50:10.263Z,99393.83
2018-03-04T07:52:38.399Z,99392.20
2018-03-04T07:55:06.549Z,99389.66
2018-03-04T07:57:34.751Z,99382.17
2018-03-04T08:00:02.885Z,99383.73
2018-03-04T08:02:31.030Z,99393.52
2018-03-04T08:04:59.119Z,99386.78
2018-03-04T08:07:27.254Z,99379.34
2018-03-04T08:09:55.370Z,99379.84
2018-03-04T08:12:23.488Z,99385.56
2018-03-04T08:14:51.593Z,99378.73
2018-03-04T08:17:23.259Z,99394.62
2018-03-04T08:19:51.366Z,99401.48
2018-03-04T08:22:19.488Z,99387.02
2018-03-04T08:24:59.451Z,99382.38
2018-03-04T08:27:39.466Z,99394.34
2018-03-04T08:30:07.574Z,99388.37
2018-03-04T08:32:35.671Z,99389.43
2018-03-04T08:35:03.798Z,99401.09
2018-03-04T08:37:31.900Z,99402.45
2018-03-04T08:40:00.043Z,99399.53
2018-03-04T08:42:28.184Z,99390.87
2018-03-04T08:44:56.310Z,99394.18
2018-03-04T08:47:24.405Z,99394.84
2018-03-04T08:49:52.532Z,99390.84
2018-03-04T08:52:20.648Z,99388.64
2018-03-04T08:54:48.780Z,99382.88
2018-03-04T08:57:16.930Z,99376.68
2018-03-04T08:59:45.045Z,99374.62
2018-03-04T09:02:13.220Z,99374.78
2018-03-04T09:04:41.317Z,99374.62
2018-03-04T09:07:09.436Z,99361.16
2018-03-04T09:09:37.540Z,99360.42
2018-03-04T09:12:05.668Z,99372.27
2018-03-04T09:14:33.791Z,99370.19
2018-03-04T09:17:01.909Z,99376.52
2018-03-04T09:19:30.028Z,99372.73
2018-03-04T09:21:58.166Z,99367.45
2018-03-04T09:24:26.277Z,99372.66
2018-03-04T09:26:54.398Z,99367.67
2018-03-04T09:29:22.509Z,99371.75
2018-03-04T09:31:50.629Z,99373.66
2018-03-04T09:34:18.724Z,99361.34
2018-03-04T09:36:46.850Z,99362.10
2018-03-04T09:39:14.962Z,99362.75
2018-03-04T09:41:43.083Z,99365.44
2018-03-04T09:44:11.210Z,99354.57
2018-03-04T09:46:39.328Z,99347.70
2018-03-04T09:49:07.425Z,99355.94
2018-03-04T09:51:35.588Z,99375.44
2018-03-04T09:54:03.699Z,99376.20
2018-03-04T09:56:31.824Z,99366.16
2018-03-04T09:58:59.955Z,99361.72
2018-03-04T10:01:28.108Z,99356.98
2018-03-04T10:03:56.203Z,99350.23
2018-03-04T10:06:24.484Z,99350.61
2018-03-04T10:08:52.670Z,99346.18
2018-03-04T10:11:20.840Z,99344.01
2018-03-04T10:13:48.950Z,99342.04
2018-03-04T10:16:17.073Z,99337.39
2018-03-04T10:18:45.188Z,99340.80
2018-03-04T10:21:13.314Z,99343.45
2018-03-04T10:23:41.437Z,99340.77
2018-03-04T10:26:09.560Z,99343.04
2018-03-04T10:28:37.671Z,99333.45
2018-03-04T10:31:05.792Z,99338.20
2018-03-04T10:33:33.911Z,99324.30
2018-03-04T10:36:02.017Z,99319.64
2018-03-04T10:38:30.166Z,99326.89
2018-03-04T10:40:58.277Z,99312.77
2018-03-04T10:43:26.386Z,99320.17
2018-03-04T10:45:54.517Z,99307.84
2018-03-04T10:48:22.618Z,99311.08
2018-03-04T10:50:50.729Z,99308.84
2018-03-04T10:53:18.847Z,99304.09
2018-03-04T10:55:46.948Z,99306.14
2018-03-04T10:58:15.085Z,99302.77
2018-03-04T11:00:47.042Z,99303.89
2018-03-04T11:03:15.949Z,99305.14
2018-03-04T11:05:44.052Z,99303.89
2018-03-04T11:08:12.235Z,99305.58
2018-03-04T11:10:40.344Z,99303.59
2018-03-04T11:13:08.448Z,99299.27
2018-03-04T11:15:36.563Z,99296.58
2018-03-04T11:18:04.831Z,99297.94
2018-03-04T11:20:32.950Z,99292.70
2018-03-04T11:23:01.171Z,99294.14
2018-03-04T11:25:29.287Z,99296.87
2018-03-04T11:27:58.300Z,99298.25
2018-03-04T11:30:26.446Z,99287.12
2018-03-04T11:32:54.576Z,99281.39
2018-03-04T11:35:22.679Z,99278.38
2018-03-04T11:37:50.825Z,99276.61
2018-03-04T11:40:18.945Z,99278.55
2018-03-04T11:42:47.079Z,99277.04
2018-03-04T11:45:15.223Z,99277.61
2018-03-04T11:47:43.339Z,99266.67
2018-03-04T11:50:11.444Z,99265.44
2018-03-04T11:52:39.570Z,99274.88
2018-03-04T11:55:07.675Z,99256.76
2018-03-04T11:57:35.808Z,99255.47
2018-03-04T12:00:03.977Z,99252.66
2018-03-04T12:02:32.095Z,99250.31
2018-03-04T12:05:00.213Z,99250.92
2018-03-04T12:07:28.362Z,99250.86
2018-03-04T12:09:56.484Z,99237.52
2018-03-04T12:12:24.635Z,99237.64
2018-03-04T12:14:52.716Z,99238.43
2018-03-04T12:17:20.861Z,99233.84
2018-03-04T12:19:48.997Z,99231.84
2018-03-04T12:22:20.186Z,99228.89
2018-03-04T12:24:48.359Z,99217.70
2018-03-04T12:27:16.564Z,99204.71
2018-03-04T12:29:44.718Z,99202.40
2018-03-04T12:32:13.101Z,99205.00
2018-03-04T12:34:41.677Z,99203.00
2018-03-04T12:37:09.805Z,99192.06
2018-03-04T12:39:38.096Z,99195.19
2018-03-04T12:42:06.247Z,99193.03
2018-03-04T12:44:34.321Z,99186.53
2018-03-04T12:47:02.450Z,99182.84
2018-03-04T12:49:30.559Z,99177.61
2018-03-04T12:51:58.679Z,99169.69
2018-03-04T12:54:26.846Z,99165.05
2018-03-04T12:56:54.961Z,99165.20
2018-03-04T12:59:23.074Z,99167.45
2018-03-04T13:01:51.253Z,99157.73
2018-03-04T13:04:19.442Z,99155.54
2018-03-04T13:06:47.584Z,99148.76
2018-03-04T13:09:15.693Z,99149.92
2018-03-04T13:11:43.798Z,99142.11
2018-03-04T13:14:11.934Z,99133.33
2018-03-04T13:16:40.107Z,99129.41
2018-03-04T13:19:08.238Z,99136.13
2018-03-04T13:21:36.365Z,99128.81
2018-03-04T13:24:04.488Z,99126.72
2018-03-04T13:26:32.605Z,99117.75
2018-03-04T13:29:00.724Z,99127.34
2018-03-04T13:31:32.474Z,99124.59
2018-03-04T13:34:00.592Z,99119.09
2018-03-04T13:36:28.716Z,99123.64
2018-03-04T13:38:56.835Z,99112.91
2018-03-04T13:41:24.987Z,99114.88
2018-03-04T13:43:53.116Z,99106.20
2018-03-04T13:46:21.269Z,99100.11
2018-03-04T13:48:49.409Z,99111.77
2018-03-04T13:51:17.714Z,99097.45
2018-03-04T13:53:45.846Z,99101.50
2018-03-04T13:56:13.975Z,99091.84
2018-03-04T13:58:42.131Z,99093.08
2018-03-04T14:01:10.271Z,99093.91
2018-03-04T14:03:38.377Z,99087.98
2018-03-04T14:06:06.514Z,99082.84
2018-03-04T14:08:34.643Z,99088.89
2018-03-04T14:11:02.840Z,99085.66
2018-03-04T14:13:30.969Z,99089.96
2018-03-04T14:15:59.097Z,99088.36
2018-03-04T14:18:27.464Z,99081.20
2018-03-04T14:20:55.614Z,99078.09
2018-03-04T14:23:23.738Z,99079.42
2018-03-04T14:25:51.861Z,99076.58
2018-03-04T14:28:19.994Z,99080.41
2018-03-04T14:30:48.172Z,99079.86
2018-03-04T14:33:16.303Z,99077.61
2018-03-04T14:35:44.430Z,99081.23
2018-03-04T14:38:12.545Z,99085.16
2018-03-04T14:40:40.679Z,99079.50
2018-03-04T14:43:08.779Z,99076.66
2018-03-04T14:45:36.896Z,99073.42
2018-03-04T14:48:05.012Z,99071.80
2018-03-04T14:50:33.133Z,99075.47
2018-03-04T14:53:02.156Z,99073.73
2018-03-04T14:55:30.299Z,99075.34
2018-03-04T14:57:58.423Z,99076.85
2018-03-04T15:00:26.576Z,99075.38
2018-03-04T15:02:54.711Z,99068.91
2018-03-04T15:05:22.836Z,99062.05
2018-03-04T15:07:50.949Z,99067.16
2018-03-04T15:10:19.430Z,99064.22
2018-03-04T15:12:47.526Z,99061.39
2018-03-04T15:15:15.645Z,99052.09
2018-03-04T15:17:43.773Z,99048.84
2018-03-04T15:20:11.896Z,99046.81
2018-03-04T15:22:40.020Z,99034.69
2018-03-04T15:25:11.075Z,99025.00
2018-03-04T15:27:39.212Z,99026.60
2018-03-04T15:30:07.330Z,99024.88
2018-03-04T15:32:35.475Z,99020.42
2018-03-04T15:35:03.618Z,99014.48
2018-03-04T15:37:32.595Z,99004.95
2018-03-04T15:40:00.737Z,99003.05
2018-03-04T15:42:28.878Z,98987.44
2018-03-04T15:44:56.987Z,98992.80
2018-03-04T15:47:25.150Z,98989.45
2018-03-04T15:49:53.347Z,98982.57
2018-03-04T15:52:21.398Z,98989.45
2018-03-04T15:54:49.520Z,98989.31
2018-03-04T15:57:17.624Z,98981.38
2018-03-04T15:59:45.730Z,98988.92
2018-03-04T16:02:13.865Z,98995.28
2018-03-04T16:04:41.998Z,98997.96
2018-03-04T16:07:10.122Z,98998.63
2018-03-04T16:09:38.442Z,98989.08
2018-03-04T16:12:06.541Z,98990.57
2018-03-04T16:14:34.665Z,98984.53
2018-03-04T16:17:02.923Z,98981.25
2018-03-04T16:19:31.049Z,98977.08
2018-03-04T16:21:59.185Z,98967.24
2018-03-04T16:24:27.495Z,98966.17
2018-03-04T16:26:55.739Z,98970.77
2018-03-04T16:29:23.858Z,98967.11
2018-03-04T16:31:51.988Z,98975.73
2018-03-04T16:34:20.127Z,98969.94
2018-03-04T16:36:48.558Z,98971.83
2018-03-04T16:39:16.655Z,98969.94
2018-03-04T16:41:44.752Z,98970.90
2018-03-04T16:44:12.857Z,98970.34
2018-03-04T16:46:40.976Z,98968.44
2018-03-04T16:49:09.088Z,98968.71
2018-03-04T16:51:37.194Z,98970.06
2018-03-04T16:54:05.423Z,98961.84
2018-03-04T16:56:33.536Z,98963.05
2018-03-04T16:59:07.326Z,98959.83
2018-03-04T17:01:35.436Z,98963.73
2018-03-04T17:04:03.541Z,98960.48
2018-03-04T17:06:31.672Z,98954.81
2018-03-04T17:08:59.793Z,98953.60
2018-03-04T17:11:27.947Z,98952.66
2018-03-04T17:13:56.241Z,98952.66
2018-03-04T17:16:24.339Z,98955.99
2018-03-04T17:18:52.480Z,98951.72
2018-03-04T17:21:20.608Z,98952.34
2018-03-04T17:23:48.734Z,98954.38
2018-03-04T17:26:16.861Z,98948.45
2018-03-04T17:28:44.983Z,98944.98
2018-03-04T17:31:13.101Z,98950.48
2018-03-04T17:33:41.210Z,98956.08
2018-03-04T17:36:09.319Z,98964.40
2018-03-04T17:38:37.428Z,98967.50
2018-03-04T17:41:05.534Z,98968.28
2018-03-04T17:43:33.865Z,98973.38
2018-03-04T17:46:01.963Z,98974.83
2018-03-04T17:48:30.090Z,98974.56
2018-03-04T17:50:58.203Z,98971.77
2018-03-04T17:53:26.322Z,98975.64
2018-03-04T17:55:54.437Z,98968.53
2018-03-04T17:58:22.539Z,98981.67
2018-03-04T18:00:50.656Z,98978.71
2018-03-04T18:03:18.762Z,98973.86
2018-03-04T18:05:46.873Z,98971.44
2018-03-04T18:08:14.988Z,98954.88
2018-03-04T18:10:43.325Z,98953.78
2018-03-04T18:13:11.492Z,98940.32
2018-03-04T18:15:39.625Z,98928.67
2018-03-04T18:18:07.748Z,98939.77
2018-03-04T18:20:35.881Z,98934.67
2018-03-04T18:23:03.987Z,98937.39
2018-03-04T18:25:32.105Z,98911.32
2018-03-04T18:28:00.328Z,98913.81
2018-03-04T18:30:28.403Z,98900.34
2018-03-04T18:32:56.519Z,98901.15
2018-03-04T18:35:24.642Z,98912.95
2018-03-04T18:37:52.771Z,98913.20
2018-03-04T18:40:20.892Z,98911.37
2018-03-04T18:42:48.994Z,98918.69
2018-03-04T18:45:17.113Z,98916.77
2018-03-04T18:47:45.225Z,98923.30
2018-03-04T18:50:13.320Z,98943.95
2018-03-04T18:52:41.441Z,98941.28
2018-03-04T18:55:09.555Z,98931.77
2018-03-04T18:57:37.655Z,98939.83
2018-03-04T19:00:05.771Z,98927.98
2018-03-04T19:02:33.868Z,98927.83
2018-03-04T19:05:01.998Z,98928.19
2018-03-04T19:07:30.107Z,98919.63
2018-03-04T19:09:58.232Z,98919.18
2018-03-04T19:12:26.406Z,98923.84
2018-03-04T19:14:54.467Z,98922.89
2018-03-04T19:17:22.714Z,98915.87
2018-03-04T19:19:50.823Z,98913.08
2018-03-04T19:22:18.957Z,98909.08
2018-03-04T19:24:47.091Z,98899.52
2018-03-04T19:27:15.211Z,98901.75
2018-03-04T19:29:43.340Z,98891.70
2018-03-04T19:32:14.658Z,98893.77
2018-03-04T19:34:45.708Z,98889.99
2018-03-04T19:37:13.847Z,98881.39
2018-03-04T19:39:41.960Z,98872.95
2018-03-04T19:42:10.073Z,98857.70
2018-03-04T19:44:38.319Z,98832.45
2018-03-04T19:47:06.430Z,98822.90
2018-03-04T19:49:34.576Z,98826.38
2018-03-04T19:52:02.685Z,98828.91
2018-03-04T19:54:30.827Z,98830.53
2018-03-04T19:56:58.923Z,98833.76
2018-03-04T19:59:27.059Z,98825.58
2018-03-04T20:01:55.153Z,98823.40
2018-03-04T20:04:23.278Z,98811.75
2018-03-04T20:06:51.538Z,98808.89
2018-03-04T20:09:19.666Z,98799.13
2018-03-04T20:11:51.219Z,98804.14
2018-03-04T20:14:22.955Z,98808.16
2018-03-04T20:16:54.825Z,98808.28
2018-03-04T20:19:22.923Z,98803.68
2018-03-04T20:21:51.053Z,98809.88
2018-03-04T20:24:19.161Z,98812.66
2018-03-04T20:26:47.273Z,98813.88
2018-03-04T20:29:17.332Z,98827.63
2018-03-04T20:31:45.509Z,98821.84
2018-03-04T20:34:17.164Z,98830.37
2018-03-04T20:36:45.273Z,98827.80
2018-03-04T20:39:13.377Z,98836.44
2018-03-04T20:41:41.498Z,98834.88
2018-03-04T20:44:09.634Z,98836.91
2018-03-04T20:46:37.740Z,98844.80
2018-03-04T20:49:05.835Z,98837.78
2018-03-04T20:51:33.966Z,98841.66
2018-03-04T20:54:02.981Z,98842.61
2018-03-04T20:56:31.102Z,98847.39
2018-03-04T20:58:59.228Z,98847.38
2018-03-04T21:01:27.333Z,98848.78
2018-03-04T21:03:55.439Z,98850.50
2018-03-04T21:06:23.560Z,98846.28
2018-03-04T21:08:51.669Z,98847.41
2018-03-04T21:11:19.791Z,98850.22
2018-03-04T21:13:47.912Z,98851.53
2018-03-04T21:16:16.057Z,98854.58
2018-03-04T21:18:44.174Z,98852.46
2018-03-04T21:21:12.287Z,98854.90
2018-03-04T21:23:40.428Z,98852.17
2018-03-04T21:26:08.671Z,98855.86
2018-03-04T21:28:36.783Z,98861.36
2018-03-04T21:31:04.907Z,98857.09
2018-03-04T21:33:33.081Z,98862.62
2018-03-04T21:36:01.181Z,98871.22
2018-03-04T21:38:29.285Z,98869.70
2018-03-04T21:40:57.634Z,98873.28
2018-03-04T21:43:25.982Z,98872.09
2018-03-04T21:45:54.096Z,98877.97
2018-03-04T21:48:22.291Z,98881.77
2018-03-04T21:50:50.388Z,98878.59
2018-03-04T21:53:18.508Z,98880.05
2018-03-04T21:55:46.639Z,98883.44
2018-03-04T21:58:14.755Z,98893.78
2018-03-04T22:00:42.899Z,98884.11
2018-03-04T22:03:11.029Z,98898.70
2018-03-04T22:05:39.208Z,98903.94
2018-03-04T22:08:07.272Z,98910.87
2018-03-04T22:10:35.394Z,98914.70
2018-03-04T22:13:03.511Z,98915.94
2018-03-04T22:15:31.638Z,98927.43
2018-03-04T22:17:59.745Z,98940.19
2018-03-04T22:20:27.873Z,98952.36
2018-03-04T22:22:55.967Z,98951.66
2018-03-04T22:25:24.086Z,98964.30
2018-03-04T22:27:52.920Z,98963.03
2018-03-04T22:30:21.011Z,98976.20
2018-03-04T22:32:49.120Z,98974.13
2018-03-04T22:35:17.247Z,98973.23
2018-03-04T22:37:46.251Z,98985.02
2018-03-04T22:40:14.354Z,98985.40
2018-03-04T22:42:42.485Z,98986.30
2018-03-04T22:45:10.580Z,99002.35
2018-03-04T22:47:38.700Z,99003.18
2018-03-04T22:50:06.822Z,99008.73
2018-03-04T22:52:34.918Z,99013.48
2018-03-04T22:55:03.036Z,99016.71
2018-03-04T22:57:31.156Z,99030.63
2018-03-04T22:59:59.278Z,99030.91
2018-03-04T23:02:27.390Z,99033.69
2018-03-04T23:04:55.518Z,99040.16
2018-03-04T23:07:23.638Z,99031.70
2018-03-04T23:09:51.766Z,99030.50
2018-03-04T23:12:19.897Z,99030.63
2018-03-04T23:14:48.009Z,99034.91
2018-03-04T23:17:16.093Z,99041.28
2018-03-04T23:19:44.217Z,99042.85
2018-03-04T23:22:12.331Z,99047.25
2018-03-04T23:24:40.432Z,99046.20
2018-03-04T23:27:08.571Z,99040.14
2018-03-04T23:29:36.656Z,99045.75
2018-03-04T23:32:04.774Z,99044.42
2018-03-04T23:34:32.893Z,99047.70
2018-03-04T23:37:00.992Z,99049.55
2018-03-04T23:39:29.255Z,99054.05
2018-03-04T23:41:57.370Z,99051.40
2018-03-04T23:44:25.486Z,99061.92
2018-03-04T23:46:53.579Z,99066.45
2018-03-04T23:49:21.693Z,99069.47
2018-03-04T23:51:49.791Z,99067.34
2018-03-04T23:54:17.924Z,99069.50
2018-03-04T23:56:46.027Z,99074.86
2018-03-04T23:59:14.128Z,99083.53
